createdAt,value
2017-09-07T00:00:02.606Z,11.9
2017-09-07T00:15:03.226Z,11.9
2017-09-07T00:30:02.976Z,11.9
2017-09-07T00:45:02.576Z,11.9
2017-09-07T01:00:03.185Z,11.9
2017-09-07T01:15:02.767Z,11.9
2017-09-07T01:30:03.477Z,11.9
2017-09-07T01:45:03.164Z,11.9
2017-09-07T02:00:02.709Z,11.9
2017-09-07T02:15:03.292Z,11.9
2017-09-07T02:30:03.010Z,11.9
2017-09-07T02:45:02.643Z,12
2017-09-07T03:00:03.294Z,12
2017-09-07T03:15:02.853Z,12
2017-09-07T03:30:02.573Z,12
2017-09-07T03:45:03.182Z,12
2017-09-07T04:00:02.732Z,12
2017-09-07T04:15:03.337Z,12
2017-09-07T04:30:03.062Z,12
2017-09-07T04:45:02.642Z,12
2017-09-07T05:00:03.288Z,12.1
2017-09-07T05:15:02.886Z,12
2017-09-07T05:30:02.539Z,12.1
2017-09-07T05:45:03.171Z,12
2017-09-07T06:00:02.790Z,12
2017-09-07T06:15:03.395Z,12.1
2017-09-07T06:30:03.286Z,12.1
2017-09-07T06:45:02.886Z,12.1
2017-09-07T07:00:03.592Z,12.1
2017-09-07T07:15:03.192Z,12.1
2017-09-07T07:30:02.924Z,12.1
2017-09-07T07:45:03.584Z,12.1
2017-09-07T08:00:03.172Z,12.1
2017-09-07T08:15:02.789Z,12.1
2017-09-07T08:30:03.455Z,12.1
2017-09-07T08:45:03.079Z,12.1
2017-09-07T09:00:02.662Z,12.1
2017-09-07T09:15:03.235Z,12.2
2017-09-07T09:30:03.042Z,12.2
2017-09-07T09:45:02.566Z,12.2
2017-09-07T10:00:03.194Z,12.2
2017-09-07T10:15:02.762Z,12.2
2017-09-07T10:30:03.473Z,12.2
2017-09-07T10:45:03.193Z,12.3
2017-09-07T11:00:02.807Z,12.3
2017-09-07T11:15:03.397Z,12.3
2017-09-07T11:30:03.073Z,12.4
2017-09-07T11:45:02.684Z,12.4
2017-09-07T12:00:03.303Z,12.4
2017-09-07T12:15:02.901Z,12.4
2017-09-07T12:30:02.590Z,12.5
2017-09-07T12:45:03.207Z,12.6
2017-09-07T13:00:02.875Z,12.6
2017-09-07T13:15:03.474Z,12.6
2017-09-07T13:30:03.114Z,12.6
2017-09-07T13:45:02.734Z,12.6
2017-09-07T14:00:03.281Z,12.7
2017-09-07T14:15:02.850Z,12.7
2017-09-07T14:30:02.537Z,12.6
2017-09-07T14:45:03.136Z,12.6
2017-09-07T15:00:02.774Z,12.6
2017-09-07T15:15:03.376Z,12.6
2017-09-07T15:30:03.030Z,12.6
2017-09-07T15:45:02.671Z,12.6
2017-09-07T16:00:03.268Z,12.6
2017-09-07T16:15:02.908Z,12.6
2017-09-07T16:30:02.572Z,12.6
2017-09-07T16:45:03.170Z,12.6
2017-09-07T17:00:02.731Z,12.5
2017-09-07T17:15:03.271Z,12.5
2017-09-07T17:30:02.972Z,12.4
2017-09-07T17:45:02.671Z,12.4
2017-09-07T18:00:03.281Z,12.4
2017-09-07T18:15:02.908Z,12.4
2017-09-07T18:30:02.598Z,12.3
2017-09-07T18:45:03.151Z,12.3
2017-09-07T19:00:02.789Z,12.2
2017-09-07T19:15:03.462Z,12.2
2017-09-07T19:30:03.129Z,12.2
2017-09-07T19:45:02.743Z,12.1
2017-09-07T20:00:03.309Z,12.1
2017-09-07T20:15:02.987Z,12.1
2017-09-07T20:30:02.651Z,12.1
2017-09-07T20:45:03.275Z,12.1
2017-09-07T21:00:02.869Z,12
2017-09-07T21:15:03.505Z,12.1
2017-09-07T21:30:03.279Z,12.1
2017-09-07T21:45:02.894Z,12
2017-09-07T22:00:03.525Z,12
2017-09-07T22:15:03.170Z,12
2017-09-07T22:30:02.830Z,12
2017-09-07T22:45:03.421Z,12
2017-09-07T23:00:03.089Z,12
2017-09-07T23:15:02.671Z,12
2017-09-07T23:30:03.378Z,12
2017-09-07T23:45:03.026Z,12
